Saint Germain, WI

11:55 AM CDT on October 02, 2014 (GMT -0500)
Kings Land O'Lakes | Change Station
CLOSE
Current Station
Airport
Location: Land O' Lakes,
Elevation: 1706 ft
Nearby Weather Stations

Elev 1706 ft 46.15 °N, 89.21 °W | Updated 20 minutes ago

Overcast
Overcast
56 °F
Feels Like 56 °F
N
4
Wind Variable Wind from ESE

Today
High -- | Low -- °F
--% Chance of Precip.
Yesterday
High -- | Low -- °F
Precip. -- in
6:57 AM 6:36 PM
First Quarter, 60% visible
Pressure 29.85 in
Visibility 3.0 miles
Clouds Overcast 300 ft
Dew Point 55 °F
Humidity 94%
Rainfall 0.00 in
Snow Depth Not available.
UV 1 out of 12
Pollen .40 out of 12
Air Quality Not available.
Flu Activity Not available.
METAR KLNL 021635Z AUTO 11003KT 3SM BR OVC003 14/13 A2985 RMK AO2 T01350126

More Conditions Fewer Conditions

Pressure 29.85 in
Visibility 3.0 miles
Clouds Overcast 300 ft
Dew Point 55 °F
Humidity 94%
Rainfall 0.00 in
Snow Depth Not available.
UV 1 out of 12
Pollen .40 out of 12
Air Quality Not available.
Flu Activity Not available.
METAR KLNL 021635Z AUTO 11003KT 3SM BR OVC003 14/13 A2985 RMK AO2 T01350126

More Conditions Fewer Conditions

10-Day Weather Forecast

Almanac

Astronomy

Oct. 02, 2014 Rise Set
Actual Time 6:57 AM CDT 6:36 PM CDT
Civil Twilight 6:27 AM CDT 7:05 PM CDT
Nautical Twilight 5:53 AM CDT 7:40 PM CDT
Astronomical Twilight 5:18 AM CDT 8:15 PM CDT
Moon 2:58 PM CDT No Moon Set
Length of Visible Light 12h 37m
Length of Day
11h 38m
Tomorrow will be 3m 12s shorter.
First Quarter, 60% of the Moon is Illuminated
Today
First Quarter
Oct 8
Full
Oct 15
Last Quarter
Oct 23
New
Oct 30
First Quarter

Today's Extremes

State Highs State Lows

Community

WunderPhotos

Upload Photos

1,758,294 photos uploaded!

WunderBlogs® & News

Nearby

Snow Depth

Station Depth Elevation
No new snow has been reported.

Earthquake Activity

City Distance Mag. Time & Date
No recent earthquake activity has been reported nearby.
Minimum magnitude displayed is 2.5.

Coastal Water Temperatures

Place Temperature
No Stations Reporting

Nearby Weather Stations